Time;durP1;ratioP1;P1;durP2;ratioP2;P2;SDS_P1;SDS_P2;PMS_P1;PMS_P2;Temp;Humidity;BMP_temperature;BMP_pressure;BME280_temperature;BME280_humidity;BME280_pressure;Samples;Min_cycle;Max_cycle;Signal;HPM_P1;HPM_P2
2021/07/07 00:00:38;;;;;;;3.67;0.98;;;;;;;17.86;77.05;100264.66;5028997;28;20048;-64
2021/07/07 00:03:05;;;;;;;4.40;0.82;;;;;;;17.85;76.90;100251.38;5018594;28;20056;-64
2021/07/07 00:05:31;;;;;;;4.60;0.90;;;;;;;17.83;77.06;100248.81;5012506;28;20037;-62
2021/07/07 00:07:58;;;;;;;4.07;0.93;;;;;;;17.81;77.17;100261.47;5019718;28;20046;-64
2021/07/07 00:10:25;;;;;;;2.13;1.00;;;;;;;17.80;76.90;100264.28;5023148;28;20049;-61
2021/07/07 00:12:53;;;;;;;5.10;1.13;;;;;;;17.80;76.90;100265.13;5028638;28;20053;-65
2021/07/07 00:15:21;;;;;;;3.33;1.10;;;;;;;17.77;77.24;100260.03;5019491;28;20099;-66
2021/07/07 00:17:48;;;;;;;2.50;1.33;;;;;;;17.76;77.39;100266.38;5018125;28;20046;-64
2021/07/07 00:20:18;;;;;;;4.55;1.05;;;;;;;17.76;77.39;100279.75;5018349;28;20056;-62
2021/07/07 00:22:45;;;;;;;3.63;1.27;;;;;;;17.74;77.42;100268.31;5020868;28;20496;-62
2021/07/07 00:25:12;;;;;;;5.85;1.35;;;;;;;17.72;77.40;100261.34;5027664;28;20049;-62
2021/07/07 00:27:39;;;;;;;3.38;1.05;;;;;;;17.69;77.70;100273.16;5018025;28;20056;-63
2021/07/07 00:30:07;;;;;;;1.50;1.10;;;;;;;17.66;77.86;100251.97;5023275;28;20068;-63
2021/07/07 00:32:33;;;;;;;3.60;1.10;;;;;;;17.65;78.15;100250.25;5040416;28;20050;-63
2021/07/07 00:35:00;;;;;;;1.98;1.17;;;;;;;17.63;78.04;100257.53;5043786;28;20057;-64
2021/07/07 00:37:26;;;;;;;2.10;1.02;;;;;;;17.63;78.38;100267.41;5043087;28;20068;-64
2021/07/07 00:39:53;;;;;;;3.03;1.13;;;;;;;17.61;78.41;100258.66;5024901;28;20060;-61
2021/07/07 00:42:19;;;;;;;3.10;1.23;;;;;;;17.63;78.31;100262.06;5032358;28;20045;-63
2021/07/07 00:44:46;;;;;;;3.22;1.15;;;;;;;17.61;78.14;100261.31;5015576;28;20056;-64
2021/07/07 00:47:12;;;;;;;2.97;1.20;;;;;;;17.62;78.20;100249.66;5017084;28;20412;-63
2021/07/07 00:49:41;;;;;;;3.05;1.80;;;;;;;17.61;78.22;100247.94;5029961;28;20045;-63
2021/07/07 00:52:09;;;;;;;3.28;1.20;;;;;;;17.59;78.35;100253.41;5039360;28;20053;-64
2021/07/07 00:54:36;;;;;;;6.57;1.20;;;;;;;17.58;78.52;100245.50;5039312;28;20053;-63
2021/07/07 00:57:03;;;;;;;5.32;1.20;;;;;;;17.56;78.42;100253.66;5039057;28;20049;-63
2021/07/07 00:59:29;;;;;;;2.55;1.30;;;;;;;17.53;78.46;100253.88;5034472;28;20963;-62
2021/07/07 01:01:56;;;;;;;2.67;1.02;;;;;;;17.52;78.63;100249.50;5042658;28;20045;-62
2021/07/07 01:04:23;;;;;;;2.50;1.00;;;;;;;17.48;78.84;100240.84;5036641;28;20049;-63
2021/07/07 01:06:49;;;;;;;2.05;1.17;;;;;;;17.46;78.63;100244.63;5041289;28;22657;-64
2021/07/07 01:09:16;;;;;;;2.83;1.00;;;;;;;17.43;78.74;100245.72;5046403;28;20059;-64
2021/07/07 01:11:42;;;;;;;2.95;0.98;;;;;;;17.42;78.62;100248.50;5036640;28;20149;-64
2021/07/07 01:14:09;;;;;;;4.25;1.20;;;;;;;17.39;78.58;100265.66;5037274;28;20049;-63
2021/07/07 01:16:40;;;;;;;2.33;1.02;;;;;;;17.37;78.63;100261.38;5043048;28;20061;-64
2021/07/07 01:19:06;;;;;;;2.38;1.00;;;;;;;17.37;78.57;100256.03;5051001;28;20220;-63
2021/07/07 01:21:34;;;;;;;4.32;1.35;;;;;;;17.36;78.78;100252.50;5052370;28;20059;-64
2021/07/07 01:24:01;;;;;;;2.80;1.00;;;;;;;17.36;78.55;100255.19;5044440;28;20057;-62
2021/07/07 01:26:28;;;;;;;1.58;0.80;;;;;;;17.36;78.29;100254.31;5034318;28;20047;-64
2021/07/07 01:28:54;;;;;;;2.42;1.10;;;;;;;17.33;78.00;100252.75;5039002;28;20041;-63
2021/07/07 01:31:21;;;;;;;3.47;1.25;;;;;;;17.33;78.30;100259.91;5042907;28;20143;-63
2021/07/07 01:33:47;;;;;;;3.35;1.00;;;;;;;17.33;77.81;100254.56;5044866;28;20057;-64
2021/07/07 01:36:14;;;;;;;4.68;1.20;;;;;;;17.30;77.94;100249.47;5042023;28;20060;-65
2021/07/07 01:38:40;;;;;;;2.78;1.00;;;;;;;17.30;78.24;100254.81;5056455;28;20131;-62
2021/07/07 01:41:07;;;;;;;1.45;0.95;;;;;;;17.27;77.89;100261.25;5039888;28;20053;-63
2021/07/07 01:43:33;;;;;;;3.08;1.20;;;;;;;17.26;77.62;100264.06;5035942;28;20064;-62
2021/07/07 01:46:00;;;;;;;1.45;0.95;;;;;;;17.25;77.38;100262.34;5037316;28;20044;-63
2021/07/07 01:48:26;;;;;;;4.25;1.00;;;;;;;17.24;77.37;100265.97;5039844;28;20041;-63
2021/07/07 01:50:53;;;;;;;3.97;1.20;;;;;;;17.23;77.34;100258.94;5047982;28;20080;-64
2021/07/07 01:53:19;;;;;;;3.60;1.00;;;;;;;17.21;77.07;100263.53;5035169;28;20085;-62
2021/07/07 01:55:46;;;;;;;1.65;0.85;;;;;;;17.22;77.13;100262.56;5037829;28;20056;-64
2021/07/07 01:58:12;;;;;;;2.30;0.88;;;;;;;17.24;77.50;100276.69;5038679;28;20539;-63
2021/07/07 02:00:39;;;;;;;3.00;1.25;;;;;;;17.26;76.81;100270.25;5043243;28;20059;-63
2021/07/07 02:03:05;;;;;;;2.38;0.88;;;;;;;17.22;76.60;100247.38;5040096;28;20699;-64
2021/07/07 02:05:36;;;;;;;4.75;1.05;;;;;;;17.21;76.88;100231.44;5053949;28;20051;-63
2021/07/07 02:08:05;;;;;;;1.88;0.70;;;;;;;17.16;77.23;100247.81;5033911;28;20061;-63
2021/07/07 02:10:33;;;;;;;2.85;1.20;;;;;;;17.14;77.67;100277.41;5044320;28;20058;-63
2021/07/07 02:12:59;;;;;;;3.45;1.05;;;;;;;17.17;76.88;100285.19;5039289;28;20049;-61
2021/07/07 02:15:29;;;;;;;1.88;0.80;;;;;;;17.16;76.72;100286.13;5042145;28;20049;-63
2021/07/07 02:17:57;;;;;;;4.00;1.20;;;;;;;17.15;76.57;100279.13;5040576;28;20044;-64
2021/07/07 02:20:26;;;;;;;1.95;0.80;;;;;;;17.12;77.03;100283.84;5035464;28;20048;-63
2021/07/07 02:22:53;;;;;;;3.20;0.90;;;;;;;17.09;76.63;100289.41;5044330;28;20044;-61
2021/07/07 02:25:29;;;;;;;2.60;1.00;;;;;;;17.05;76.97;100285.25;5041366;28;20048;-63
2021/07/07 02:27:57;;;;;;;2.17;1.00;;;;;;;17.02;77.23;100278.31;5035779;28;20045;-62
2021/07/07 02:30:27;;;;;;;3.53;1.00;;;;;;;17.02;77.04;100283.66;5036890;28;20051;-63
2021/07/07 02:32:55;;;;;;;3.55;0.95;;;;;;;17.00;77.27;100282.09;5045428;28;20114;-61
2021/07/07 02:35:24;;;;;;;3.75;1.27;;;;;;;17.01;77.17;100287.31;5036837;28;20053;-63
2021/07/07 02:37:53;;;;;;;1.83;0.90;;;;;;;16.99;76.98;100286.59;5048371;28;20052;-62
2021/07/07 02:40:23;;;;;;;3.95;1.17;;;;;;;16.97;77.17;100277.81;5041709;28;20460;-63
2021/07/07 02:42:50;;;;;;;4.30;0.90;;;;;;;16.95;77.36;100277.09;5038589;28;20421;-63
2021/07/07 02:45:18;;;;;;;2.50;1.20;;;;;;;16.95;77.19;100298.47;5029795;28;20055;-64
2021/07/07 02:47:46;;;;;;;1.95;1.08;;;;;;;16.94;77.13;100301.28;5037874;28;20060;-63
2021/07/07 02:50:16;;;;;;;2.13;1.05;;;;;;;16.90;77.04;100302.47;5036957;28;20147;-63
2021/07/07 02:52:44;;;;;;;3.47;0.93;;;;;;;16.90;77.31;100318.50;5039420;28;20523;-64
2021/07/07 02:55:13;;;;;;;3.60;1.10;;;;;;;16.89;77.54;100320.31;5032593;28;20051;-63
2021/07/07 03:00:36;;;;;;;3.45;1.15;;;;;;;16.82;77.70;100308.41;5036996;28;20049;-65
2021/07/07 03:03:11;;;;;;;3.00;1.10;;;;;;;16.81;77.65;100315.56;5039881;28;20045;-64
2021/07/07 03:05:46;;;;;;;6.45;0.90;;;;;;;16.83;77.94;100315.44;5039917;28;20047;-64
2021/07/07 03:08:14;;;;;;;2.30;1.10;;;;;;;16.83;77.62;100324.31;5049616;28;20063;-63
2021/07/07 03:10:42;;;;;;;2.83;1.10;;;;;;;16.80;77.47;100321.88;5049378;28;20048;-65
2021/07/07 03:13:09;;;;;;;2.67;1.10;;;;;;;16.79;77.87;100324.66;5031995;28;20075;-64
2021/07/07 03:15:37;;;;;;;6.30;1.20;;;;;;;16.77;77.94;100313.22;5049089;28;20075;-65
2021/07/07 03:18:07;;;;;;;2.88;0.93;;;;;;;16.76;77.73;100314.19;5039445;28;20136;-63
2021/07/07 03:20:35;;;;;;;1.88;1.10;;;;;;;16.72;77.88;100316.22;5040449;28;20052;-65
2021/07/07 03:23:03;;;;;;;4.75;3.17;;;;;;;16.74;77.34;100322.31;5050908;28;20053;-64
2021/07/07 03:25:30;;;;;;;2.95;1.30;;;;;;;16.73;77.58;100319.75;5044154;28;20059;-64
2021/07/07 03:27:57;;;;;;;3.53;1.13;;;;;;;16.73;78.25;100319.75;5039019;28;20052;-64
2021/07/07 03:30:26;;;;;;;1.85;0.93;;;;;;;16.74;77.58;100325.00;5039104;28;20053;-65
2021/07/07 03:32:54;;;;;;;5.82;1.33;;;;;;;16.74;77.63;100332.16;5045235;28;20661;-66
2021/07/07 03:35:20;;;;;;;3.28;1.17;;;;;;;16.72;77.89;100331.41;5045831;28;20037;-65
2021/07/07 03:37:47;;;;;;;2.30;1.38;;;;;;;16.68;77.87;100330.81;5050339;28;20053;-64
2021/07/07 03:40:15;;;;;;;5.07;1.30;;;;;;;16.69;77.73;100328.94;5046548;28;20052;-62
2021/07/07 03:42:42;;;;;;;2.67;1.15;;;;;;;16.68;78.15;100333.47;5039949;28;20140;-65
2021/07/07 03:45:11;;;;;;;5.85;1.25;;;;;;;16.69;77.97;100328.94;5042572;28;20542;-65
2021/07/07 03:47:38;;;;;;;3.10;0.93;;;;;;;16.68;78.05;100327.28;5041443;28;20061;-64
2021/07/07 03:50:06;;;;;;;2.25;1.10;;;;;;;16.66;78.09;100339.91;5040899;28;20483;-62
2021/07/07 03:52:33;;;;;;;3.08;0.90;;;;;;;16.65;78.19;100341.72;5039724;28;20057;-62
2021/07/07 03:55:02;;;;;;;2.30;1.05;;;;;;;16.65;78.53;100338.19;5038694;28;20048;-63
2021/07/07 03:57:30;;;;;;;2.30;1.27;;;;;;;16.66;78.81;100329.22;5046305;28;20060;-65
2021/07/07 03:59:56;;;;;;;6.55;1.30;;;;;;;16.64;78.94;100318.63;5047938;28;20060;-63
2021/07/07 04:02:23;;;;;;;2.75;1.27;;;;;;;16.64;78.91;100317.75;5043968;28;20056;-65
2021/07/07 04:04:49;;;;;;;3.55;1.30;;;;;;;16.64;79.16;100320.44;5031696;28;20056;-66
2021/07/07 04:07:16;;;;;;;4.40;1.42;;;;;;;16.62;78.81;100343.72;5034994;28;20057;-65
2021/07/07 04:09:42;;;;;;;5.05;1.52;;;;;;;16.64;78.04;100349.84;5043960;28;20417;-64
2021/07/07 04:12:09;;;;;;;4.88;1.05;;;;;;;16.60;78.27;100348.31;5039361;28;20131;-65
2021/07/07 04:14:36;;;;;;;5.00;1.20;;;;;;;16.58;78.83;100339.56;5041985;28;20045;-65
2021/07/07 04:17:03;;;;;;;3.28;1.25;;;;;;;16.58;78.73;100342.22;5040072;28;20064;-64
2021/07/07 04:19:29;;;;;;;4.07;1.05;;;;;;;16.57;78.80;100353.88;5034755;28;20128;-62
2021/07/07 04:21:56;;;;;;;3.17;1.33;;;;;;;16.55;78.82;100366.50;5040441;28;20512;-65
2021/07/07 04:24:23;;;;;;;2.28;0.95;;;;;;;16.54;78.71;100357.63;5037746;28;20053;-66
2021/07/07 04:26:51;;;;;;;3.67;1.20;;;;;;;16.54;79.06;100352.28;5038826;28;20060;-63
2021/07/07 04:29:18;;;;;;;3.70;1.23;;;;;;;16.55;79.23;100347.78;5037420;28;20598;-63
2021/07/07 04:31:44;;;;;;;2.60;1.00;;;;;;;16.53;79.32;100352.41;5033881;28;20045;-62
2021/07/07 04:34:11;;;;;;;2.28;1.17;;;;;;;16.53;79.10;100358.59;5038241;28;20107;-63
2021/07/07 04:36:38;;;;;;;4.28;1.30;;;;;;;16.55;79.41;100350.47;5037355;28;20055;-64
2021/07/07 04:39:06;;;;;;;2.85;1.20;;;;;;;16.56;79.17;100355.69;5044587;28;20052;-63
2021/07/07 04:41:33;;;;;;;3.55;1.23;;;;;;;16.56;79.15;100360.19;5037086;28;20056;-63
2021/07/07 04:44:00;;;;;;;4.40;1.30;;;;;;;16.52;79.40;100354.25;5041924;28;20040;-64
2021/07/07 04:46:27;;;;;;;2.67;1.50;;;;;;;16.51;79.82;100359.69;5042382;28;20044;-63
2021/07/07 04:48:53;;;;;;;2.40;1.05;;;;;;;16.53;79.68;100363.13;5041799;28;20417;-65
2021/07/07 04:51:20;;;;;;;4.57;1.50;;;;;;;16.53;79.72;100366.59;5037964;28;20045;-63
2021/07/07 04:53:47;;;;;;;4.53;1.17;;;;;;;16.56;79.63;100376.22;5032454;28;20050;-65
2021/07/07 04:56:13;;;;;;;4.25;1.40;;;;;;;16.60;79.98;100367.88;5031583;28;20037;-64
2021/07/07 04:58:41;;;;;;;3.33;1.50;;;;;;;16.70;79.15;100360.06;5033623;28;20052;-66
2021/07/07 05:01:09;;;;;;;3.28;1.10;;;;;;;16.72;79.12;100363.50;5035991;28;20249;-64
2021/07/07 05:03:36;;;;;;;4.10;1.33;;;;;;;16.76;78.91;100371.19;5031397;28;20579;-65
2021/07/07 05:06:03;;;;;;;7.45;1.70;;;;;;;16.81;78.79;100370.88;5032559;28;20563;-64
2021/07/07 05:08:30;;;;;;;3.45;1.02;;;;;;;16.89;78.75;100362.25;5036554;28;20712;-65
2021/07/07 05:10:56;;;;;;;2.58;1.38;;;;;;;17.01;78.53;100382.75;5035264;28;20044;-64
2021/07/07 05:13:24;;;;;;;5.18;1.38;;;;;;;17.12;77.85;100381.00;5016251;28;20055;-63
2021/07/07 05:15:51;;;;;;;3.28;1.38;;;;;;;17.17;77.53;100378.81;5030227;28;20111;-65
2021/07/07 05:18:19;;;;;;;1.92;1.10;;;;;;;17.22;76.81;100383.84;5035118;28;20114;-63
2021/07/07 05:20:46;;;;;;;3.83;1.00;;;;;;;17.25;76.49;100390.78;5050844;28;20053;-64
2021/07/07 05:23:13;;;;;;;1.77;1.00;;;;;;;17.22;76.63;100401.72;5044518;28;20440;-64
2021/07/07 05:25:40;;;;;;;4.68;1.05;;;;;;;17.17;76.83;100408.25;5038714;28;20691;-63
2021/07/07 05:28:07;;;;;;;3.47;1.42;;;;;;;17.16;77.07;100427.97;5037268;28;20171;-63
2021/07/07 05:30:34;;;;;;;2.55;1.10;;;;;;;17.12;76.71;100429.19;5036909;28;20049;-64
2021/07/07 05:33:01;;;;;;;1.65;1.02;;;;;;;17.13;77.38;100427.34;5060635;28;20060;-64
2021/07/07 05:35:28;;;;;;;5.20;1.30;;;;;;;17.13;77.71;100435.38;5047290;28;20045;-63
2021/07/07 05:37:54;;;;;;;3.63;1.10;;;;;;;17.17;77.47;100434.16;5042832;28;20407;-66
2021/07/07 05:40:23;;;;;;;6.97;1.85;;;;;;;17.19;77.54;100434.91;5048969;28;20061;-65
2021/07/07 05:42:53;;;;;;;4.95;1.10;;;;;;;17.23;76.92;100438.22;5038615;28;20579;-65
2021/07/07 05:45:21;;;;;;;3.58;1.30;;;;;;;17.24;76.96;100434.59;5031858;28;20052;-63
2021/07/07 05:47:48;;;;;;;2.38;1.20;;;;;;;17.29;77.23;100430.59;5032592;28;20053;-63
2021/07/07 05:50:18;;;;;;;3.10;1.10;;;;;;;17.32;76.84;100424.16;5032541;28;20041;-62
2021/07/07 05:52:44;;;;;;;3.30;1.40;;;;;;;17.36;76.67;100420.28;5033486;28;20729;-62
2021/07/07 05:55:11;;;;;;;6.32;1.48;;;;;;;17.40;76.33;100421.78;5032617;28;20059;-64
2021/07/07 05:57:38;;;;;;;8.57;1.70;;;;;;;17.48;76.27;100424.72;5031100;28;20427;-65
2021/07/07 06:00:07;;;;;;;6.07;1.80;;;;;;;17.56;75.88;100422.31;5035011;28;20053;-63
2021/07/07 06:02:34;;;;;;;2.50;1.00;;;;;;;17.66;75.15;100418.00;5033293;28;20049;-65
2021/07/07 06:05:25;;;;;;;5.00;1.25;;;;;;;17.75;75.05;100420.00;5033732;28;20728;-65
2021/07/07 06:08:15;;;;;;;4.45;1.40;;;;;;;17.86;74.29;100436.09;5033702;28;20673;-65
2021/07/07 06:10:43;;;;;;;4.45;1.58;;;;;;;17.87;73.91;100437.81;5033272;28;21761;-64
2021/07/07 06:13:09;;;;;;;7.53;1.58;;;;;;;17.84;75.33;100447.91;5034875;28;20076;-65
2021/07/07 06:15:37;;;;;;;4.18;1.58;;;;;;;17.83;73.48;100452.41;5031730;28;20516;-64
2021/07/07 06:18:05;;;;;;;9.88;1.67;;;;;;;17.77;73.83;100454.72;5036269;28;20055;-63
2021/07/07 06:20:32;;;;;;;6.45;1.67;;;;;;;17.78;73.88;100459.94;5035200;28;20061;-65
2021/07/07 06:22:59;;;;;;;5.32;1.75;;;;;;;17.86;74.38;100451.31;5037206;28;20045;-61
2021/07/07 06:25:27;;;;;;;6.78;1.55;;;;;;;17.95;73.82;100444.38;5034789;28;20485;-63
2021/07/07 06:27:53;;;;;;;8.50;1.30;;;;;;;17.96;74.51;100452.31;5032828;28;20776;-65
2021/07/07 06:30:26;;;;;;;4.32;1.23;;;;;;;17.96;74.18;100454.13;5033090;28;20134;-63
2021/07/07 06:32:56;;;;;;;5.72;1.40;;;;;;;17.98;73.75;100465.59;5036164;28;20053;-64
2021/07/07 06:35:23;;;;;;;3.47;1.35;;;;;;;18.06;73.43;100465.88;5034003;28;20500;-64
2021/07/07 06:37:49;;;;;;;3.97;1.27;;;;;;;18.07;73.12;100460.41;5035287;28;20043;-63
2021/07/07 06:40:19;;;;;;;5.22;1.67;;;;;;;18.15;73.10;100454.44;5035939;28;20049;-65
2021/07/07 06:42:46;;;;;;;4.18;1.95;;;;;;;18.20;72.06;100460.28;5051864;28;20070;-64
2021/07/07 06:45:14;;;;;;;4.03;1.40;;;;;;;18.25;72.48;100452.75;5057106;28;20476;-63
2021/07/07 06:47:41;;;;;;;4.57;1.70;;;;;;;18.32;71.86;100464.69;5033732;28;20048;-65
2021/07/07 06:50:10;;;;;;;6.40;2.13;;;;;;;18.53;72.00;100468.38;5042092;28;21039;-61
2021/07/07 06:52:37;;;;;;;3.80;1.47;;;;;;;18.81;71.01;100468.91;5036993;28;20056;-64
2021/07/07 06:55:06;;;;;;;3.53;1.27;;;;;;;19.17;69.77;100470.47;5040219;28;20055;-65
2021/07/07 06:57:35;;;;;;;2.05;1.20;;;;;;;19.58;68.22;100467.91;5044369;28;20060;-65
2021/07/07 07:00:07;;;;;;;3.58;1.40;;;;;;;19.70;66.96;100470.56;5039908;28;20564;-63
2021/07/07 07:02:33;;;;;;;4.53;1.45;;;;;;;19.73;66.69;100476.53;5036241;28;20654;-64
2021/07/07 07:05:00;;;;;;;3.08;1.50;;;;;;;19.92;66.41;100479.38;5039952;28;22285;-63
2021/07/07 07:07:27;;;;;;;4.50;1.50;;;;;;;19.94;64.31;100484.63;5025952;28;20045;-64
2021/07/07 07:09:54;;;;;;;2.97;1.75;;;;;;;19.68;64.71;100484.13;5035783;28;20061;-64
2021/07/07 07:12:20;;;;;;;3.25;1.30;;;;;;;19.42;65.45;100496.13;5041719;28;20041;-62
2021/07/07 07:14:50;;;;;;;3.03;1.40;;;;;;;19.23;66.34;100489.59;5038438;28;20437;-67
2021/07/07 07:17:17;;;;;;;2.07;1.23;;;;;;;19.24;67.03;100493.13;5042920;28;20053;-65
2021/07/07 07:19:43;;;;;;;5.72;1.70;;;;;;;19.47;66.86;100500.16;5038400;28;20126;-62
2021/07/07 07:22:10;;;;;;;3.63;2.70;;;;;;;19.77;65.34;100495.94;5043655;28;20053;-64
2021/07/07 07:24:36;;;;;;;6.95;1.92;;;;;;;20.05;63.64;100491.78;5041817;28;20060;-61
2021/07/07 07:27:03;;;;;;;5.35;1.90;;;;;;;20.37;64.34;100486.38;5054117;28;20064;-65
2021/07/07 07:29:29;;;;;;;6.82;1.50;;;;;;;20.93;63.71;100493.03;5044055;28;20041;-65
2021/07/07 07:31:56;;;;;;;7.38;1.92;;;;;;;21.39;63.01;100491.63;5049815;28;20129;-65
2021/07/07 07:34:23;;;;;;;3.47;1.38;;;;;;;21.61;59.64;100485.13;5041064;28;20087;-65
2021/07/07 07:36:52;;;;;;;6.30;1.42;;;;;;;21.59;60.59;100490.66;5037072;28;20136;-65
2021/07/07 07:39:21;;;;;;;6.40;1.25;;;;;;;21.79;60.68;100483.44;5043448;28;20094;-63
2021/07/07 07:41:48;;;;;;;6.87;1.30;;;;;;;21.93;58.10;100485.72;5043102;28;20045;-66
2021/07/07 07:44:17;;;;;;;2.15;1.30;;;;;;;21.86;58.01;100479.19;5046805;28;20394;-63
2021/07/07 07:46:44;;;;;;;3.83;1.20;;;;;;;21.88;59.01;100485.28;5040389;28;20048;-63
2021/07/07 07:49:13;;;;;;;3.15;1.52;;;;;;;22.07;59.85;100481.75;5038866;28;20041;-63
2021/07/07 07:51:40;;;;;;;2.90;1.37;;;;;;;22.32;58.06;100480.31;5036761;28;20578;-65
2021/07/07 07:54:07;;;;;;;4.10;1.55;;;;;;;22.43;57.30;100488.22;5040445;28;20049;-64
2021/07/07 07:56:33;;;;;;;5.07;1.40;;;;;;;22.34;56.30;100494.50;5036648;28;20052;-64
2021/07/07 07:59:00;;;;;;;5.72;1.35;;;;;;;22.34;56.43;100483.72;5051832;28;20037;-65
2021/07/07 08:01:28;;;;;;;6.03;1.20;;;;;;;22.30;55.84;100493.09;5035156;28;20056;-64
2021/07/07 08:03:54;;;;;;;4.55;1.10;;;;;;;22.22;56.04;100493.81;5035164;28;20057;-62
2021/07/07 08:06:21;;;;;;;5.68;1.15;;;;;;;22.28;56.74;100486.97;5017620;28;20989;-61
2021/07/07 08:08:47;;;;;;;5.13;1.10;;;;;;;22.39;57.57;100489.50;5021564;28;20673;-62
2021/07/07 08:11:14;;;;;;;4.70;1.17;;;;;;;22.36;55.51;100487.94;5019762;28;20515;-64
2021/07/07 08:13:41;;;;;;;2.53;1.10;;;;;;;22.29;56.60;100486.84;5033628;28;20522;-63
2021/07/07 08:16:08;;;;;;;6.82;1.30;;;;;;;22.31;56.38;100489.41;5018447;28;20062;-63
2021/07/07 08:18:34;;;;;;;3.70;1.30;;;;;;;22.31;56.28;100489.41;5033497;28;20071;-63
2021/07/07 08:21:02;;;;;;;3.45;1.15;;;;;;;22.33;56.61;100485.56;5031940;28;20052;-65
2021/07/07 08:23:28;;;;;;;5.78;1.45;;;;;;;22.46;56.13;100490.66;5029139;28;20055;-63
2021/07/07 08:25:55;;;;;;;2.10;1.25;;;;;;;22.65;56.54;100484.34;5037779;28;20055;-64
2021/07/07 08:28:21;;;;;;;5.03;1.33;;;;;;;22.85;55.85;100480.59;5029773;28;20765;-64
2021/07/07 08:30:48;;;;;;;6.50;1.40;;;;;;;22.89;56.59;100484.69;5045415;28;20049;-64
2021/07/07 08:33:15;;;;;;;2.65;1.30;;;;;;;22.98;56.75;100480.25;5052080;28;20052;-64
2021/07/07 08:35:43;;;;;;;4.50;1.35;;;;;;;22.93;55.94;100479.84;5035151;28;20045;-63
2021/07/07 08:38:10;;;;;;;4.75;1.48;;;;;;;22.71;55.67;100473.78;5042145;28;20167;-63
2021/07/07 08:40:37;;;;;;;3.80;1.40;;;;;;;22.66;57.09;100477.94;5040203;28;20073;-64
2021/07/07 08:43:04;;;;;;;3.95;1.10;;;;;;;22.70;56.96;100482.88;5036524;28;22039;-63
2021/07/07 08:45:33;;;;;;;3.97;1.40;;;;;;;22.82;56.85;100480.06;5032732;28;20135;-63
2021/07/07 08:48:00;;;;;;;2.83;1.35;;;;;;;22.70;55.79;100488.28;5032048;28;20130;-64
2021/07/07 08:50:29;;;;;;;9.02;1.52;;;;;;;22.62;56.81;100495.44;5033446;28;20192;-64
2021/07/07 08:52:59;;;;;;;4.53;1.30;;;;;;;22.47;57.36;100495.03;5035637;28;20058;-63
2021/07/07 08:55:27;;;;;;;5.00;1.75;;;;;;;22.63;57.60;100495.28;5036259;28;20051;-62
2021/07/07 08:57:53;;;;;;;5.70;1.58;;;;;;;22.75;57.05;100496.78;5034469;28;20053;-65
2021/07/07 09:00:35;;;;;;;7.13;1.52;;;;;;;22.93;57.37;100496.06;5041037;28;20488;-64
2021/07/07 09:03:03;;;;;;;5.45;1.52;;;;;;;23.04;55.34;100496.72;5039034;28;20063;-64
2021/07/07 09:05:30;;;;;;;4.05;1.73;;;;;;;23.05;55.97;100495.72;5036991;28;20051;-62
2021/07/07 09:08:07;;;;;;;5.13;2.00;;;;;;;23.10;55.97;100503.38;5041871;28;20060;-64
2021/07/07 09:10:33;;;;;;;6.32;2.00;;;;;;;23.19;55.97;100507.00;5033692;28;20053;-64
2021/07/07 09:13:12;;;;;;;4.88;2.10;;;;;;;22.99;56.24;100508.94;5035822;28;20056;-61
2021/07/07 09:15:39;;;;;;;6.80;1.75;;;;;;;22.97;57.36;100511.81;5044952;28;20052;-63
2021/07/07 09:18:06;;;;;;;5.47;2.63;;;;;;;23.02;55.76;100516.75;5040264;28;20417;-64
2021/07/07 09:20:40;;;;;;;4.20;2.20;;;;;;;22.95;56.79;100519.22;5030371;28;20057;-64
2021/07/07 09:23:24;;;;;;;5.82;2.00;;;;;;;23.04;57.18;100518.31;5047629;28;20082;-65
2021/07/07 09:25:57;;;;;;;4.55;2.40;;;;;;;23.14;55.95;100523.66;5038411;28;20136;-64
2021/07/07 09:28:38;;;;;;;3.35;1.83;;;;;;;23.06;56.50;100527.13;5041889;28;20071;-64
2021/07/07 09:31:26;;;;;;;3.95;2.10;;;;;;;23.14;56.58;100537.16;5033297;28;20123;-62
2021/07/07 09:33:52;;;;;;;8.25;2.50;;;;;;;23.26;56.07;100540.53;5046594;28;20064;-63
2021/07/07 09:36:21;;;;;;;3.90;2.10;;;;;;;23.37;54.54;100537.63;5050456;28;20047;-61
2021/07/07 09:38:49;;;;;;;5.80;2.92;;;;;;;23.47;54.11;100534.84;5039464;28;20047;-62
2021/07/07 09:41:17;;;;;;;4.22;2.40;;;;;;;23.37;54.75;100537.63;5043532;28;20423;-62
2021/07/07 09:43:46;;;;;;;7.63;2.58;;;;;;;23.32;55.65;100538.06;5041964;28;20059;-66
2021/07/07 09:46:13;;;;;;;3.87;2.50;;;;;;;23.30;56.08;100531.13;5025021;28;20049;-62
2021/07/07 09:48:40;;;;;;;5.68;2.60;;;;;;;23.30;55.79;100529.25;5018386;28;20643;-63
2021/07/07 09:51:06;;;;;;;5.68;2.50;;;;;;;23.25;56.50;100537.00;5035039;28;20140;-63
2021/07/07 09:53:33;;;;;;;14.00;2.72;;;;;;;23.26;56.45;100535.16;5027500;28;20059;-61
2021/07/07 09:56:03;;;;;;;10.88;2.90;;;;;;;23.30;55.72;100537.38;5028088;28;20053;-62
2021/07/07 09:58:30;;;;;;;7.68;2.33;;;;;;;23.43;55.57;100537.03;5027562;28;20053;-62
2021/07/07 10:00:57;;;;;;;6.13;2.42;;;;;;;23.57;54.05;100535.72;5016789;28;20757;-62
2021/07/07 10:03:24;;;;;;;6.45;2.85;;;;;;;23.44;54.05;100534.19;5023754;28;20063;-62
2021/07/07 10:05:52;;;;;;;4.38;2.33;;;;;;;23.37;54.52;100543.03;5027505;28;20416;-64
2021/07/07 10:08:20;;;;;;;10.23;2.92;;;;;;;23.43;53.39;100537.88;5015437;28;20056;-60
2021/07/07 10:10:47;;;;;;;8.60;2.30;;;;;;;23.45;53.00;100538.56;5022997;28;20119;-63
2021/07/07 10:13:15;;;;;;;6.00;2.00;;;;;;;23.51;53.64;100529.03;5021009;28;20060;-61
2021/07/07 10:15:42;;;;;;;4.95;1.75;;;;;;;23.54;51.30;100534.16;5027149;28;20059;-63
2021/07/07 10:18:09;;;;;;;5.72;1.52;;;;;;;23.42;50.84;100543.44;5025423;28;20052;-60
2021/07/07 10:20:36;;;;;;;9.27;2.55;;;;;;;23.41;52.01;100539.03;5027496;28;20061;-63
2021/07/07 10:23:06;;;;;;;5.30;1.63;;;;;;;23.29;53.01;100535.69;5032162;28;20057;-61
2021/07/07 10:25:35;;;;;;;3.40;1.38;;;;;;;23.19;52.73;100534.03;5032089;28;20051;-60
2021/07/07 10:28:10;;;;;;;5.22;1.70;;;;;;;23.21;53.49;100532.03;5032947;28;20077;-60
2021/07/07 10:30:51;;;;;;;5.40;2.20;;;;;;;23.35;53.11;100539.63;5040167;28;20049;-61
2021/07/07 10:33:20;;;;;;;7.28;1.50;;;;;;;23.51;50.76;100528.16;5052394;28;20055;-61
2021/07/07 10:35:48;;;;;;;8.65;1.80;;;;;;;23.67;51.30;100531.94;5040582;28;20080;-60
2021/07/07 10:38:15;;;;;;;6.05;1.65;;;;;;;23.87;50.10;100540.75;5045899;28;20242;-61
2021/07/07 10:40:50;;;;;;;7.85;2.05;;;;;;;23.95;48.97;100540.81;5050880;28;20044;-62
2021/07/07 10:43:25;;;;;;;4.72;1.90;;;;;;;23.86;48.55;100544.47;5063191;28;20051;-61
2021/07/07 10:45:52;;;;;;;4.88;1.67;;;;;;;23.73;49.30;100544.84;5043989;28;20063;-61
2021/07/07 10:48:23;;;;;;;4.75;1.45;;;;;;;23.61;48.92;100545.22;5036729;28;20553;-63
2021/07/07 10:50:51;;;;;;;5.78;3.00;;;;;;;23.64;49.41;100545.75;5038845;28;20055;-61
2021/07/07 10:53:30;;;;;;;4.28;1.60;;;;;;;23.85;49.44;100540.06;5037260;28;20140;-60
2021/07/07 10:55:58;;;;;;;3.92;1.30;;;;;;;23.83;48.51;100527.69;5040437;28;20063;-60
2021/07/07 10:58:34;;;;;;;6.18;1.38;;;;;;;23.71;48.55;100527.06;5040009;28;20790;-60
2021/07/07 11:01:01;;;;;;;4.82;1.67;;;;;;;23.77;48.27;100526.44;5038822;28;20144;-62
2021/07/07 11:03:40;;;;;;;4.15;1.50;;;;;;;24.09;46.26;100524.03;5045956;28;20044;-60
2021/07/07 11:06:21;;;;;;;3.88;1.23;;;;;;;24.15;45.23;100519.88;5038501;28;20057;-61
2021/07/07 11:08:49;;;;;;;4.78;1.48;;;;;;;24.31;45.49;100513.78;5040774;28;20140;-61
2021/07/07 11:11:23;;;;;;;4.47;1.30;;;;;;;24.34;45.96;100521.59;5054262;28;20061;-61
2021/07/07 11:13:52;;;;;;;6.35;1.95;;;;;;;24.35;46.63;100520.59;5054589;28;20140;-60
2021/07/07 11:16:24;;;;;;;6.38;1.42;;;;;;;24.57;46.54;100511.91;5051676;28;20063;-60
2021/07/07 11:18:52;;;;;;;4.10;1.30;;;;;;;24.49;47.65;100509.19;5051079;28;20041;-61
2021/07/07 11:21:19;;;;;;;5.10;1.65;;;;;;;24.31;46.75;100509.22;5048486;28;20049;-62
2021/07/07 11:23:46;;;;;;;4.85;1.40;;;;;;;24.35;47.54;100501.63;5052721;28;20112;-61
2021/07/07 11:26:13;;;;;;;5.45;1.52;;;;;;;24.54;46.40;100512.28;5049901;28;20102;-62
2021/07/07 11:28:41;;;;;;;3.90;1.30;;;;;;;24.73;46.41;100511.19;5035198;28;20528;-62
2021/07/07 11:31:08;;;;;;;3.08;1.10;;;;;;;24.91;45.62;100516.53;5041892;28;20500;-63